Airfield :
LOGIN :

Register | Disclaimer

   EN    FR    IT 

 










Legend :    VFR   Marginal VFR   IFR   Intensive IFR   Very Intensive IFR
Visi :
Ceiling :
>= 8 km
>= 3000ft
5 to 8 km
1000 to 3000 ft
1500m to 5 km
500 to 1000 ft
800 to 1500m
200 to 500 ft
< 800m
< 200 ft
Symbols :   Thunderstorms  Fog  Heavy snow  Heavy precipitations  Wind > 20 kt
SIGMETs :     Misc.  Thunderstorms  Icing  Turbulence  Mountain Waves  Volcanic Ashes







- Airport Elevation : 194 ft
- IATA code : ANE
- Download approach charts


LFJR - Angers Marcé

CURRENT METAR :
  • 212030Z AUTO 06005KT 8000 // NSC 01/M01 Q1015

EXPIRED METARs :
  • 212000Z AUTO 07004KT 9000 // NSC 00/M01 Q1014
  • 211930Z AUTO 07005KT 9999 // NSC 01/M01 Q1014
  • 211900Z AUTO 06007KT 9999 // NSC 01/M01 Q1014
  • 211830Z AUTO 06004KT 9999 // NSC M00/M02 Q1014
  • 211800Z AUTO 07004KT 9999 // NSC 00/M02 Q1014

TAF TAF LFJR
Valid from the 21 at 15:00 until the 22 at 00:00 UTC


211400Z 2115/2124 12007KT CAVOK
No reported NOTAMs for that airfield.
1 SIGMET reported for the Brest FIR (LFRR) :
 
Embedded thunderstorms
LFRR SIGMET 1 VALID 212000/212200 LFPW
LFRR BREST FIR/UIR EMBD TS OBS AT 2000Z WI N4515 W00515 - N4645 W00515 - N4630 W00400 - N4515 W00445 - N4515 W00515 TOP FL280 MOV N 20KT NC=



MET'MAP, your aeronautical weather chart ! - Copyright ORBIFLY December 2007 - Disclaimer

ORBIFLY MET'MAP TEAM :

Programming & Development : Alexandra Zaïnal
Concept & Development : Baudouin d'Aumeries
Co-Development & Prog : Marc-Olivier Méhu
Technical & hardware support : Manuel Goepfert

Contact : metmap@orbifly.com




SOURCES & CREDITS :

   NOAA